Kennedy Shores, Texas
Current Conditions -  °F | °C
As of 7:53 AM on Monday 20 Oct 2014 (Local Time) from KBRO Reporting Station
Clear Clear  
Wind Chill: 72°   Ceiling: Unl
Heat Index: 72°   Visibility: 10mi
Dew Point: 69°   Wind: 6mph
Humidity: 91%   Direction: 350°N
Pressure: 29.93"   Gusts: NA
Location:  26.0002°N, 97.5729°W
Report Text: KBRO 201253Z 35005KT 10SM CLR 22/21 A2993 RMK AO2 SLP133 T02220206 $
Loading
Personal Weather Stations






























Interactive Weather Map
Tropical Storm Tracking
New forecast layout! Learn more

10-Day Weather Forecast

Advertisements
Track Severe Weather on mobile